KLMT/LMT METAR and TAF weather

Enter ICAO airport designator
Station Type Date Time Source
KLMT METAR 2021/04/18 02:53 UTC NOAA

KLMT 180253Z 33005KT 10SM CLR 14/M06 A3019 RMK AO2 SLP210 LAST T01441061 53001


Station Type Date Time Source
KLMT Decoded METAR 2021/04/18 02:53 UTC NOAA

KLAMATH FALLS INTERNATIONAL AIRPORT, OR, United States (KLMT) 42-09N 121-43W 1246M
Apr 17, 2021 - 10:53 PM EDT / 2021.04.18 0253 UTC
Wind: from the NNW (330 degrees) at 6 MPH (5 KT):0
Visibility: 10 mile(s):0
Sky conditions: clear
Temperature: 57.9 F (14.4 C)
Dew Point: 21.0 F (-6.1 C)
Relative Humidity: 23%
Pressure (altimeter): 30.19 in. Hg (1022 hPa)
Pressure tendency: 0.00 inches (0.1 hPa) higher than three hours ago
ob: KLMT 180253Z 33005KT 10SM CLR 14/M06 A3019 RMK AO2 SLP210 LAST T01441061 53001
cycle: 3

Station Type Date Time Source
KLMT TAF 2021/04/17 18:22 UTC NOAA

TAF KLMT 171720Z 1718/1818 04007KT P6SM SKC
FM172000 10010KT P6SM SKC
FM180200 VRB03KT P6SM SKC

Example: see airport list